createdAt,value
2017-11-16T00:01:17.815Z,10.59
2017-11-16T00:03:46.126Z,10.63
2017-11-16T00:06:14.128Z,10.67
2017-11-16T00:08:42.048Z,10.68
2017-11-16T00:11:09.973Z,10.72
2017-11-16T00:13:37.910Z,10.76
2017-11-16T00:16:05.842Z,10.67
2017-11-16T00:18:33.805Z,10.59
2017-11-16T00:21:01.738Z,10.62
2017-11-16T00:23:29.772Z,10.70
2017-11-16T00:25:57.835Z,10.63
2017-11-16T00:28:25.766Z,10.70
2017-11-16T00:30:53.713Z,10.74
2017-11-16T00:33:21.645Z,10.74
2017-11-16T00:35:49.607Z,10.67
2017-11-16T00:38:17.522Z,10.55
2017-11-16T00:40:45.467Z,10.58
2017-11-16T00:43:13.404Z,10.63
2017-11-16T00:45:41.321Z,10.67
2017-11-16T00:48:09.314Z,10.62
2017-11-16T00:50:37.726Z,10.58
2017-11-16T00:53:06.013Z,10.60
2017-11-16T00:55:34.090Z,10.43
2017-11-16T00:58:02.153Z,10.26
2017-11-16T01:00:30.121Z,10.34
2017-11-16T01:02:58.037Z,10.46
2017-11-16T01:05:25.989Z,10.30
2017-11-16T01:07:53.931Z,10.33
2017-11-16T01:10:21.956Z,10.22
2017-11-16T01:12:49.922Z,10.21
2017-11-16T01:15:17.868Z,10.22
2017-11-16T01:17:45.798Z,10.24
2017-11-16T01:20:13.720Z,10.29
2017-11-16T01:22:42.466Z,10.26
2017-11-16T01:25:10.448Z,10.26
2017-11-16T01:27:38.440Z,10.32
2017-11-16T01:30:06.365Z,10.31
2017-11-16T01:32:34.568Z,10.22
2017-11-16T01:35:02.495Z,10.20
2017-11-16T01:37:30.434Z,10.25
2017-11-16T01:39:58.801Z,10.24
2017-11-16T01:42:26.747Z,10.17
2017-11-16T01:44:54.694Z,10.23
2017-11-16T01:47:22.613Z,10.31
2017-11-16T01:49:50.589Z,10.30
2017-11-16T01:52:18.698Z,10.41
2017-11-16T01:54:46.632Z,10.57
2017-11-16T01:57:14.700Z,10.53
2017-11-16T01:59:43.012Z,10.51
2017-11-16T02:02:22.719Z,10.46
2017-11-16T02:04:50.623Z,10.42
2017-11-16T02:07:18.599Z,10.47
2017-11-16T02:09:46.572Z,10.55
2017-11-16T02:12:14.500Z,10.66
2017-11-16T02:14:42.815Z,10.69
2017-11-16T02:17:10.762Z,10.75
2017-11-16T02:19:38.693Z,10.61
2017-11-16T02:22:06.624Z,10.69
2017-11-16T02:24:34.587Z,10.76
2017-11-16T02:27:02.558Z,10.72
2017-11-16T02:29:30.473Z,10.75
2017-11-16T02:31:59.312Z,10.76
2017-11-16T02:34:27.239Z,10.68
2017-11-16T02:36:55.653Z,10.59
2017-11-16T02:39:23.739Z,10.63
2017-11-16T02:41:51.665Z,10.66
2017-11-16T02:44:19.611Z,10.55
2017-11-16T02:46:47.544Z,10.65
2017-11-16T02:49:15.500Z,10.54
2017-11-16T02:51:43.429Z,10.40
2017-11-16T02:54:11.352Z,10.62
2017-11-16T02:56:39.276Z,10.58
2017-11-16T02:59:07.592Z,10.65
2017-11-16T03:01:35.753Z,10.52
2017-11-16T03:04:03.698Z,10.57
2017-11-16T03:06:31.777Z,10.62
2017-11-16T03:09:00.161Z,10.66
2017-11-16T03:11:28.094Z,10.62
2017-11-16T03:13:56.181Z,10.51
2017-11-16T03:16:24.116Z,10.50
2017-11-16T03:18:52.028Z,10.52
2017-11-16T03:21:20.350Z,10.56
2017-11-16T03:23:48.276Z,10.54
2017-11-16T03:26:16.205Z,10.55
2017-11-16T03:28:44.225Z,10.56
2017-11-16T03:31:12.224Z,10.63
2017-11-16T03:33:40.174Z,10.60
2017-11-16T03:36:08.416Z,10.66
2017-11-16T03:38:36.888Z,10.69
2017-11-16T03:41:04.822Z,10.58
2017-11-16T03:43:32.724Z,10.65
2017-11-16T03:46:00.645Z,10.59
2017-11-16T03:48:28.550Z,10.73
2017-11-16T03:50:56.605Z,10.72
2017-11-16T03:53:24.525Z,10.70
2017-11-16T03:55:52.469Z,10.72
2017-11-16T03:58:20.390Z,10.62
2017-11-16T04:00:48.517Z,10.63
2017-11-16T04:03:17.005Z,10.63
2017-11-16T04:05:44.923Z,10.61
2017-11-16T04:08:12.935Z,10.68
2017-11-16T04:10:40.877Z,10.72
2017-11-16T04:13:08.817Z,10.74
2017-11-16T04:15:36.757Z,10.62
2017-11-16T04:18:04.684Z,10.56
2017-11-16T04:20:32.668Z,10.52
2017-11-16T04:23:00.632Z,10.45
2017-11-16T04:25:28.539Z,10.43
2017-11-16T04:27:56.471Z,10.41
2017-11-16T04:30:24.373Z,10.50
2017-11-16T04:32:52.415Z,10.48
2017-11-16T04:35:20.372Z,10.55
2017-11-16T04:37:48.358Z,10.60
2017-11-16T04:40:16.325Z,10.46
2017-11-16T04:42:44.296Z,10.47
2017-11-16T04:45:12.257Z,10.41
2017-11-16T04:47:40.337Z,10.49
2017-11-16T04:50:08.309Z,10.44
2017-11-16T04:52:36.306Z,10.28
2017-11-16T04:55:04.233Z,10.25
2017-11-16T04:57:32.321Z,10.36
2017-11-16T05:00:00.650Z,10.32
2017-11-16T05:02:28.580Z,10.28
2017-11-16T05:04:56.616Z,10.17
2017-11-16T05:07:24.579Z,9.93
2017-11-16T05:09:52.524Z,10.12
2017-11-16T05:12:20.441Z,10.20
2017-11-16T05:14:48.774Z,10.11
2017-11-16T05:17:16.727Z,10.11
2017-11-16T05:19:44.643Z,9.98
2017-11-16T05:22:12.554Z,9.85
2017-11-16T05:24:40.470Z,9.81
2017-11-16T05:27:08.375Z,9.75
2017-11-16T05:29:36.723Z,9.90
2017-11-16T05:32:04.628Z,9.94
2017-11-16T05:34:32.557Z,10.08
2017-11-16T05:37:00.478Z,10.06
2017-11-16T05:39:28.376Z,9.99
2017-11-16T05:41:56.315Z,10.03
2017-11-16T05:44:24.221Z,10.03
2017-11-16T05:46:52.138Z,10.16
2017-11-16T05:49:20.064Z,10.12
2017-11-16T05:51:47.993Z,10.19
2017-11-16T05:54:15.921Z,10.09
2017-11-16T05:56:43.834Z,10.22
2017-11-16T05:59:11.836Z,10.04
2017-11-16T06:01:39.781Z,10.02
2017-11-16T06:04:07.696Z,10.01
2017-11-16T06:06:35.999Z,10.05
2017-11-16T06:09:03.956Z,10.02
2017-11-16T06:11:31.889Z,10.05
2017-11-16T06:13:59.805Z,10.13
2017-11-16T06:16:27.723Z,9.95
2017-11-16T06:18:55.637Z,9.97
2017-11-16T06:21:23.578Z,10.07
2017-11-16T06:23:51.910Z,9.98
2017-11-16T06:26:19.827Z,10.02
2017-11-16T06:28:48.176Z,10.18
2017-11-16T06:31:16.096Z,10.22
2017-11-16T06:33:44.004Z,10.11
2017-11-16T06:36:11.950Z,10.12
2017-11-16T06:38:39.957Z,10.02
2017-11-16T06:41:07.877Z,10.02
2017-11-16T06:43:35.792Z,9.99
2017-11-16T06:46:03.717Z,10.04
2017-11-16T06:48:31.638Z,9.93
2017-11-16T06:50:59.596Z,9.78
2017-11-16T06:53:27.520Z,9.76
2017-11-16T06:55:55.440Z,9.82
2017-11-16T06:58:23.752Z,9.93
2017-11-16T07:00:51.688Z,10.00
2017-11-16T07:03:19.597Z,9.97
2017-11-16T07:05:47.506Z,9.82
2017-11-16T07:08:15.420Z,9.76
2017-11-16T07:10:43.339Z,9.69
2017-11-16T07:13:11.253Z,9.82
2017-11-16T07:15:39.208Z,9.71
2017-11-16T07:18:07.521Z,9.71
2017-11-16T07:20:35.436Z,9.75
2017-11-16T07:23:03.387Z,9.67
2017-11-16T07:25:31.301Z,9.70
2017-11-16T07:27:59.605Z,9.61
2017-11-16T07:30:27.536Z,9.49
2017-11-16T07:32:55.842Z,9.66
2017-11-16T07:35:24.695Z,9.65
2017-11-16T07:37:52.638Z,9.57
2017-11-16T07:40:20.565Z,9.69
2017-11-16T07:42:48.844Z,9.60
2017-11-16T07:45:16.769Z,9.70
2017-11-16T07:47:44.694Z,9.78
2017-11-16T07:50:12.620Z,9.72
2017-11-16T07:52:40.938Z,9.69
2017-11-16T07:55:08.857Z,9.73
2017-11-16T07:57:37.187Z,9.78
2017-11-16T08:00:05.101Z,9.88
2017-11-16T08:02:33.417Z,9.73
2017-11-16T08:05:01.345Z,9.73
2017-11-16T08:07:29.264Z,9.75
2017-11-16T08:09:57.185Z,9.84
2017-11-16T08:12:25.498Z,9.75
2017-11-16T08:14:53.399Z,9.59
2017-11-16T08:17:21.326Z,9.50
2017-11-16T08:19:49.257Z,9.48
2017-11-16T08:22:17.177Z,9.48
2017-11-16T08:24:45.101Z,9.51
2017-11-16T08:27:13.404Z,9.74
2017-11-16T08:29:41.329Z,9.87
2017-11-16T08:32:09.255Z,9.97
2017-11-16T08:34:37.245Z,9.95
2017-11-16T08:37:05.156Z,9.90
2017-11-16T08:39:33.473Z,9.96
2017-11-16T08:42:01.413Z,10.08
2017-11-16T08:44:29.336Z,10.07
2017-11-16T08:46:57.293Z,10.05
2017-11-16T08:49:25.204Z,10.11
2017-11-16T08:51:53.523Z,10.24
2017-11-16T08:54:21.441Z,10.30
2017-11-16T08:56:49.742Z,10.34
2017-11-16T08:59:17.672Z,10.29
2017-11-16T09:01:45.581Z,10.37
2017-11-16T09:04:13.613Z,10.33
2017-11-16T09:06:41.956Z,10.30
2017-11-16T09:09:09.881Z,10.38
2017-11-16T09:11:38.234Z,10.47
2017-11-16T09:14:06.183Z,10.58
2017-11-16T09:16:34.117Z,10.59
2017-11-16T09:19:02.046Z,10.75
2017-11-16T09:21:29.944Z,10.66
2017-11-16T09:23:58.268Z,10.68
2017-11-16T09:26:26.168Z,10.83
2017-11-16T09:28:54.099Z,11.00
2017-11-16T09:31:22.024Z,11.07
2017-11-16T09:33:49.941Z,11.24
2017-11-16T09:36:17.868Z,11.24
2017-11-16T09:38:45.771Z,11.40
2017-11-16T09:41:13.689Z,11.53
2017-11-16T09:43:42.016Z,11.58
2017-11-16T09:46:09.925Z,11.51
2017-11-16T09:48:38.267Z,11.44
2017-11-16T09:51:06.188Z,11.35
2017-11-16T09:53:34.122Z,11.33
2017-11-16T09:56:02.113Z,11.59
2017-11-16T09:58:30.420Z,11.73
2017-11-16T10:00:58.353Z,11.71
2017-11-16T10:03:26.653Z,11.96
2017-11-16T10:05:54.560Z,12.07
2017-11-16T10:08:22.477Z,11.83
2017-11-16T10:10:50.399Z,11.85
2017-11-16T10:13:18.378Z,12.17
2017-11-16T10:15:46.277Z,12.40
2017-11-16T10:18:14.582Z,12.48
2017-11-16T10:20:42.498Z,12.61
2017-11-16T10:23:10.401Z,12.57
2017-11-16T10:25:38.344Z,12.35
2017-11-16T10:28:06.660Z,12.13
2017-11-16T10:30:34.568Z,12.00
2017-11-16T10:33:02.488Z,12.00
2017-11-16T10:35:30.403Z,11.86
2017-11-16T10:37:58.332Z,11.62
2017-11-16T10:40:26.241Z,11.48
2017-11-16T10:42:54.149Z,11.40
2017-11-16T10:45:22.087Z,11.50
2017-11-16T10:47:50.011Z,11.34
2017-11-16T10:50:17.971Z,11.24
2017-11-16T10:52:45.885Z,11.47
2017-11-16T10:55:13.809Z,11.58
2017-11-16T10:57:41.754Z,11.51
2017-11-16T11:00:10.061Z,11.34
2017-11-16T11:02:37.997Z,11.27
2017-11-16T11:05:06.355Z,11.21
2017-11-16T11:07:34.260Z,11.20
2017-11-16T11:10:02.295Z,11.37
2017-11-16T11:12:30.619Z,11.56
2017-11-16T11:14:58.556Z,11.64
2017-11-16T11:17:26.866Z,11.57
2017-11-16T11:19:54.809Z,11.59
2017-11-16T11:22:23.136Z,11.70
2017-11-16T11:24:51.098Z,11.35
2017-11-16T11:27:19.032Z,11.39
2017-11-16T11:29:46.962Z,11.25
2017-11-16T11:32:14.885Z,11.21
2017-11-16T11:34:42.804Z,11.53
2017-11-16T11:37:10.725Z,11.69
2017-11-16T11:39:38.663Z,11.66
2017-11-16T11:42:06.969Z,11.50
2017-11-16T11:44:34.904Z,11.48
2017-11-16T11:47:03.268Z,11.34
2017-11-16T11:49:31.586Z,11.46
2017-11-16T11:51:59.519Z,11.31
2017-11-16T11:54:27.838Z,11.28
2017-11-16T11:56:55.746Z,11.44
2017-11-16T11:59:23.672Z,11.47
2017-11-16T12:01:51.593Z,11.26
2017-11-16T12:04:19.517Z,11.32
2017-11-16T12:06:47.428Z,11.39
2017-11-16T12:09:15.747Z,11.19
2017-11-16T12:11:43.666Z,11.38
2017-11-16T12:14:11.640Z,11.56
2017-11-16T12:16:39.585Z,11.38
2017-11-16T12:19:07.520Z,11.45
2017-11-16T12:21:35.434Z,11.19
2017-11-16T12:24:03.360Z,11.33
2017-11-16T12:26:31.283Z,11.27
2017-11-16T12:28:59.213Z,11.33
2017-11-16T12:31:27.126Z,11.55
2017-11-16T12:33:55.442Z,11.53
2017-11-16T12:36:23.366Z,11.46
2017-11-16T12:38:51.282Z,11.35
2017-11-16T12:41:19.222Z,11.51
2017-11-16T12:43:47.526Z,11.60
2017-11-16T12:46:15.450Z,11.57
2017-11-16T12:48:43.372Z,11.62
2017-11-16T12:51:11.296Z,11.52
2017-11-16T12:53:39.248Z,11.49
2017-11-16T12:56:07.159Z,11.53
2017-11-16T12:58:35.064Z,11.71
2017-11-16T13:01:02.987Z,11.77
2017-11-16T13:03:30.898Z,11.76
2017-11-16T13:05:59.200Z,11.76
2017-11-16T13:08:27.520Z,11.77
2017-11-16T13:10:55.431Z,11.87
2017-11-16T13:13:23.380Z,11.64
2017-11-16T13:15:51.302Z,11.58
2017-11-16T13:18:19.634Z,11.38
2017-11-16T13:20:47.556Z,11.28
2017-11-16T13:23:15.479Z,11.27
2017-11-16T13:25:43.405Z,11.51
2017-11-16T13:28:11.337Z,11.43
2017-11-16T13:30:39.672Z,11.29
2017-11-16T13:33:07.585Z,11.13
2017-11-16T13:35:35.888Z,11.05
2017-11-16T13:38:03.836Z,10.91
2017-11-16T13:40:32.172Z,10.79
2017-11-16T13:43:00.100Z,11.02
2017-11-16T13:45:28.008Z,11.04
2017-11-16T13:47:56.023Z,10.83
2017-11-16T13:50:23.962Z,10.77
2017-11-16T13:52:51.873Z,10.84
2017-11-16T13:55:19.812Z,10.79
2017-11-16T13:57:47.721Z,10.91
2017-11-16T14:00:15.628Z,10.92
2017-11-16T14:02:43.558Z,10.88
2017-11-16T14:05:11.468Z,10.78
2017-11-16T14:07:39.439Z,10.65
2017-11-16T14:10:07.349Z,10.60
2017-11-16T14:12:35.263Z,10.48
2017-11-16T14:15:03.194Z,10.56
2017-11-16T14:17:31.110Z,10.55
2017-11-16T14:19:59.049Z,10.34
2017-11-16T14:22:26.969Z,10.35
2017-11-16T14:24:56.689Z,10.34
2017-11-16T14:27:24.611Z,10.21
2017-11-16T14:29:52.526Z,10.02
2017-11-16T14:32:20.862Z,10.02
2017-11-16T14:34:48.808Z,10.03
2017-11-16T14:37:16.725Z,10.12
2017-11-16T14:39:45.057Z,10.12
2017-11-16T14:42:12.975Z,10.01
2017-11-16T14:44:41.294Z,9.93
2017-11-16T14:47:09.199Z,10.00
2017-11-16T14:49:37.132Z,10.03
2017-11-16T14:52:05.034Z,9.97
2017-11-16T14:54:32.952Z,10.02
2017-11-16T14:57:00.872Z,10.12
2017-11-16T14:59:28.802Z,10.10
2017-11-16T15:01:56.809Z,10.06
2017-11-16T15:04:24.728Z,10.12
2017-11-16T15:06:52.644Z,10.12
2017-11-16T15:09:20.564Z,10.12
2017-11-16T15:11:48.467Z,10.14
2017-11-16T15:14:16.411Z,10.28
2017-11-16T15:16:44.344Z,10.33
2017-11-16T15:19:12.661Z,10.39
2017-11-16T15:21:40.590Z,10.29
2017-11-16T15:24:08.904Z,10.32
2017-11-16T15:26:36.854Z,10.28
2017-11-16T15:29:04.760Z,10.24
2017-11-16T15:31:32.670Z,10.13
2017-11-16T15:34:00.994Z,10.20
2017-11-16T15:36:28.922Z,10.24
2017-11-16T15:38:56.857Z,10.04
2017-11-16T15:41:24.769Z,10.30
2017-11-16T15:43:52.694Z,10.22
2017-11-16T15:46:20.625Z,10.06
2017-11-16T15:48:48.537Z,10.07
2017-11-16T15:51:16.503Z,9.92
2017-11-16T15:53:44.423Z,9.85
2017-11-16T15:56:12.333Z,9.86
2017-11-16T15:58:40.268Z,9.80
2017-11-16T16:01:08.168Z,9.66
2017-11-16T16:03:36.100Z,9.60
2017-11-16T16:06:03.995Z,9.51
2017-11-16T16:08:31.930Z,9.38
2017-11-16T16:10:59.897Z,9.33
2017-11-16T16:13:27.819Z,9.28
2017-11-16T16:15:55.740Z,9.31
2017-11-16T16:18:23.638Z,9.46
2017-11-16T16:20:51.545Z,9.34
2017-11-16T16:23:19.458Z,9.16
2017-11-16T16:25:47.365Z,9.08
2017-11-16T16:28:15.766Z,9.05
2017-11-16T16:30:43.677Z,9.00
2017-11-16T16:33:11.580Z,9.08
2017-11-16T16:35:39.890Z,9.00
2017-11-16T16:38:07.826Z,8.95
2017-11-16T16:40:36.158Z,8.89
2017-11-16T16:43:04.048Z,8.98
2017-11-16T16:45:31.947Z,9.01
2017-11-16T16:48:00.271Z,9.05
2017-11-16T16:50:28.279Z,9.13
2017-11-16T16:52:56.194Z,9.09
2017-11-16T16:55:24.111Z,9.11
2017-11-16T16:57:52.034Z,9.11
2017-11-16T17:00:19.945Z,9.17
2017-11-16T17:02:47.866Z,9.29
2017-11-16T17:05:15.808Z,9.29
2017-11-16T17:07:44.117Z,9.29
2017-11-16T17:10:12.025Z,9.20
2017-11-16T17:12:39.944Z,9.15
2017-11-16T17:15:07.840Z,9.25
2017-11-16T17:17:35.767Z,9.44
2017-11-16T17:20:03.674Z,9.44
2017-11-16T17:22:31.577Z,9.37
2017-11-16T17:24:59.902Z,9.38
2017-11-16T17:27:27.821Z,9.34
2017-11-16T17:29:56.145Z,9.22
2017-11-16T17:32:24.065Z,9.28
2017-11-16T17:34:51.984Z,9.29
2017-11-16T17:37:19.900Z,9.32
2017-11-16T17:39:48.238Z,9.21
2017-11-16T17:42:16.944Z,9.10
2017-11-16T17:44:44.837Z,9.05
2017-11-16T17:47:13.131Z,9.08
2017-11-16T17:49:41.053Z,9.02
2017-11-16T17:52:08.964Z,8.91
2017-11-16T17:54:36.896Z,8.79
2017-11-16T17:57:04.801Z,8.66
2017-11-16T17:59:32.725Z,8.67
2017-11-16T18:02:00.654Z,8.68
2017-11-16T18:04:28.565Z,8.53
2017-11-16T18:06:56.503Z,8.50
2017-11-16T18:09:24.408Z,8.53
2017-11-16T18:11:52.743Z,8.48
2017-11-16T18:14:20.665Z,8.55
2017-11-16T18:16:48.989Z,8.55
2017-11-16T18:19:16.909Z,8.47
2017-11-16T18:21:44.824Z,8.48
2017-11-16T18:24:12.739Z,8.52
2017-11-16T18:26:40.658Z,8.60
2017-11-16T18:29:08.571Z,8.60
2017-11-16T18:31:36.502Z,8.69
2017-11-16T18:34:04.410Z,8.81
2017-11-16T18:36:32.327Z,8.86
2017-11-16T18:39:00.253Z,8.83
2017-11-16T18:41:28.171Z,8.93
2017-11-16T18:43:56.105Z,8.79
2017-11-16T18:46:24.012Z,8.82
2017-11-16T18:48:51.916Z,8.87
2017-11-16T18:51:19.857Z,8.81
2017-11-16T18:53:47.765Z,8.93
2017-11-16T18:56:16.088Z,8.78
2017-11-16T18:58:43.985Z,8.73
2017-11-16T19:01:11.881Z,8.61
2017-11-16T19:03:39.788Z,8.41
2017-11-16T19:06:07.692Z,8.30
2017-11-16T19:08:35.633Z,8.25
2017-11-16T19:11:03.556Z,8.19
2017-11-16T19:13:31.856Z,8.16
2017-11-16T19:15:59.772Z,8.07
2017-11-16T19:18:27.675Z,8.02
2017-11-16T19:20:55.609Z,7.98
2017-11-16T19:23:23.515Z,7.98
2017-11-16T19:25:51.415Z,7.92
2017-11-16T19:28:19.322Z,7.91
2017-11-16T19:30:47.225Z,7.90
2017-11-16T19:33:15.258Z,8.01
2017-11-16T19:35:43.165Z,8.03
2017-11-16T19:38:11.076Z,8.05
2017-11-16T19:40:38.994Z,7.89
2017-11-16T19:43:06.925Z,7.81
2017-11-16T19:45:34.855Z,7.75
2017-11-16T19:48:02.767Z,7.77
2017-11-16T19:50:30.709Z,7.69
2017-11-16T19:52:58.637Z,7.56
2017-11-16T19:55:26.549Z,7.50
2017-11-16T19:57:54.473Z,7.35
2017-11-16T20:00:22.383Z,7.39
2017-11-16T20:02:50.374Z,7.27
2017-11-16T20:05:18.293Z,7.23
2017-11-16T20:07:46.222Z,7.38
2017-11-16T20:10:14.536Z,7.37
2017-11-16T20:12:42.470Z,7.44
2017-11-16T20:15:10.774Z,7.26
2017-11-16T20:17:38.713Z,7.33
2017-11-16T20:20:07.051Z,7.26
2017-11-16T20:22:34.998Z,7.21
2017-11-16T20:25:02.926Z,7.20
2017-11-16T20:27:30.866Z,7.10
2017-11-16T20:29:58.789Z,7.17
2017-11-16T20:32:26.705Z,7.20
2017-11-16T20:34:54.645Z,7.11
2017-11-16T20:40:39.837Z,7.04
2017-11-16T20:43:13.444Z,7.16
2017-11-16T20:45:46.805Z,7.17
2017-11-16T20:51:27.049Z,7.10
2017-11-16T20:54:11.641Z,7.15
2017-11-16T20:56:39.564Z,7.22
2017-11-16T20:59:07.485Z,7.15
2017-11-16T21:01:35.400Z,7.16
2017-11-16T21:04:03.309Z,7.13
2017-11-16T21:06:31.233Z,7.16
2017-11-16T21:08:59.156Z,7.23
2017-11-16T21:11:27.071Z,7.24
2017-11-16T21:13:55.041Z,7.27
2017-11-16T21:16:22.960Z,7.33
2017-11-16T21:18:50.874Z,7.36
2017-11-16T21:21:18.788Z,7.44
2017-11-16T21:23:46.715Z,7.47
2017-11-16T21:26:14.685Z,7.44
2017-11-16T21:28:42.611Z,7.46
2017-11-16T21:31:10.701Z,7.53
2017-11-16T21:33:38.630Z,7.36
2017-11-16T21:36:06.962Z,7.43
2017-11-16T21:38:34.873Z,7.53
2017-11-16T21:41:03.213Z,7.46
2017-11-16T21:43:31.125Z,7.59
2017-11-16T21:45:59.053Z,7.52
2017-11-16T21:48:26.968Z,7.52
2017-11-16T21:50:54.862Z,7.66
2017-11-16T21:53:22.770Z,7.75
2017-11-16T21:55:50.677Z,7.65
2017-11-16T21:58:18.610Z,7.61
2017-11-16T22:00:46.912Z,7.53
2017-11-16T22:03:14.825Z,7.55
2017-11-16T22:05:42.805Z,7.51
2017-11-16T22:08:10.718Z,7.41
2017-11-16T22:10:38.649Z,7.40
2017-11-16T22:13:06.564Z,7.43
2017-11-16T22:15:34.478Z,7.31
2017-11-16T22:18:02.538Z,7.47
2017-11-16T22:20:30.877Z,7.59
2017-11-16T22:22:58.804Z,7.62
2017-11-16T22:25:26.712Z,7.63
2017-11-16T22:27:54.643Z,7.64
2017-11-16T22:30:22.571Z,7.57
2017-11-16T22:32:50.482Z,7.45
2017-11-16T22:35:18.405Z,7.62
2017-11-16T22:37:46.306Z,7.63
2017-11-16T22:40:14.205Z,7.65
2017-11-16T22:42:42.515Z,7.53
2017-11-16T22:45:10.437Z,7.53
2017-11-16T22:47:38.758Z,7.56
2017-11-16T22:50:06.684Z,7.52
2017-11-16T22:52:34.981Z,7.52
2017-11-16T22:55:02.894Z,7.59
2017-11-16T22:57:30.800Z,7.59
2017-11-16T22:59:59.187Z,7.55
2017-11-16T23:02:27.095Z,7.61
2017-11-16T23:04:55.016Z,7.50
2017-11-16T23:07:23.338Z,7.24
2017-11-16T23:09:51.446Z,7.21
2017-11-16T23:12:19.408Z,7.19
2017-11-16T23:14:47.316Z,7.31
2017-11-16T23:17:15.249Z,7.32
2017-11-16T23:19:43.167Z,7.29
2017-11-16T23:22:11.094Z,7.23
2017-11-16T23:24:39.020Z,7.35
2017-11-16T23:27:06.944Z,7.37
2017-11-16T23:29:35.297Z,7.29
2017-11-16T23:32:03.267Z,7.41
2017-11-16T23:34:31.237Z,7.29
2017-11-16T23:36:59.205Z,7.18
2017-11-16T23:39:27.244Z,7.13
2017-11-16T23:41:55.159Z,7.00
2017-11-16T23:44:23.469Z,6.89
2017-11-16T23:46:51.365Z,6.81
2017-11-16T23:49:19.297Z,6.95
2017-11-16T23:51:47.203Z,7.01
2017-11-16T23:54:15.129Z,7.05
2017-11-16T23:56:43.061Z,6.94
2017-11-16T23:59:10.955Z,7.11
